Strasbourg Airport

Airport
ICAO code: 
LFST
IATA Code: 
SXB
Summary
ICAO Region: 
EUR
Territory: 
Location: 
, Alsace
Serving: 
Strasbourg
Elevation: 
505 ft
Coordinates: 
Aerial View: 
48° 32' 17.948" N, 7° 37' 41.639" E
Metar
Observation
LFST 170130Z AUTO VRB01KT 7000 FEW018 OVC068 00/M02 Q1034 TEMPO 2000 -SN BKN003
Station
Strasbourg
Date/Time
2022-01-17 01:30:00
Wind speed
01 kts
Lowest cloud amount
few clouds
Temperature
0°C
Dew point
-2°C
Humidity
86%
QNH
1034 hPa
Weather condition
n/a

Runways

Designator Length Width Surface Rops
5/23 2400 45 ASP Yes/Yes
Airport map: 
Aerial View: 

Accidents and Serious Incidents at or in the vicinity of LFST

SKYbrary Partners:

Safety knowledge contributed by: